MSC Vega — D5BE4 — position and weather

sailwx.info

Track history (hours):
 
Tides and Currents Weather Stations Pressure Air Temp Water Temp Dewpoint Dewpoint Depression Visibility Wind Speed Wind Dir Waves Ship Positions

MSC Vega

Last reported at 2014-Sep-03 06:33 UTC. Time now 2014-Sep-03 07:24 UTC.
Position N 51°19' E 004°19'.

Length 366 m; draft 11.7 m.

Type: Ship (hazmat cat A). MMSI: 636015506.

Date/timePositionNaut miles runAvg speedWind from/ knotsBaromVisibWave heightAir tempDewpointWater temp
2014-Sep-03 06:33N 51°19' E 004°19'0 0.0
2014-Sep-03 05:33N 51°19' E 004°19'0 0.0
2014-Sep-03 04:32N 51°19' E 004°19'0 0.0
2014-Sep-03 03:33N 51°19' E 004°19'0 0.0
2014-Sep-03 02:33N 51°19' E 004°19'0 0.0
2014-Sep-03 01:32N 51°19' E 004°19'0 0.0
2014-Sep-03 00:33N 51°19' E 004°19'0 0.0
2014-Sep-02 23:32N 51°19' E 004°19'0 0.0
2014-Sep-02 22:29N 51°19' E 004°19'0 0.0
2014-Sep-02 21:32N 51°19' E 004°19'0 0.0
2014-Sep-02 20:33N 51°19' E 004°19'0 0.0
2014-Sep-02 19:33N 51°19' E 004°19'0 0.0
2014-Sep-02 18:32N 51°19' E 004°19'0 0.0
2014-Sep-02 17:32N 51°19' E 004°19'0 0.0
2014-Sep-02 16:32N 51°19' E 004°19'0 0.0
2014-Sep-02 15:32N 51°19' E 004°19'0 0.0
2014-Sep-02 14:32N 51°19' E 004°19'0 0.0
2014-Sep-02 13:32N 51°19' E 004°19'1 1.2
2014-Sep-02 12:33N 51°20' E 004°18'1 0.6
2014-Sep-02 11:34N 51°21' E 004°17'1 1.5
2014-Sep-02 10:34N 51°21' E 004°15'8 8.1
2014-Sep-02 09:34N 51°23' E 004°02'6 6.5
2014-Sep-02 08:34N 51°21' E 003°52'1111.2
2014-Sep-02 07:34N 51°26' E 003°36'1010.3
2014-Sep-02 06:34N 51°24' E 003°20'1312.5
2014-Sep-02 05:33N 51°28' E 003°01'1716.4
2014-Sep-02 04:31N 51°43' E 003°13'6 6.5
2014-Sep-02 03:33N 51°49' E 003°15'3 3.5
2014-Sep-02 02:33N 51°53' E 003°17'7 7.3
2014-Sep-02 01:31N 51°60' E 003°21'7 6.5
2014-Sep-02 00:28N 52°03' E 003°31'7 8.2
2014-Sep-01 23:33N 52°03' E 003°43'8 8.2
2014-Sep-01 22:33N 52°02' E 003°56'7 7.1
2014-Sep-01 21:33N 51°58' E 004°05'1 0.7
2014-Sep-01 20:31N 51°58' E 004°04'0 0.0
2014-Sep-01 19:31N 51°58' E 004°04'0 0.0
2014-Sep-01 18:31N 51°58' E 004°04'0 0.0
2014-Sep-01 17:31N 51°58' E 004°04'0 0.0
2014-Sep-01 16:31N 51°58' E 004°04'0 0.0
2014-Sep-01 15:31N 51°58' E 004°04'0 0.0
2014-Sep-01 14:28N 51°58' E 004°04'0 0.0
2014-Sep-01 13:28N 51°58' E 004°04'0 0.0
2014-Sep-01 12:34N 51°58' E 004°04'0 0.0
2014-Sep-01 11:28N 51°58' E 004°04'0 0.0
2014-Sep-01 10:34N 51°58' E 004°04'0 0.0
2014-Sep-01 09:34N 51°58' E 004°04'0 0.0
2014-Sep-01 08:31N 51°58' E 004°04'0 0.0
2014-Sep-01 07:31N 51°58' E 004°04'0 0.0
2014-Sep-01 06:33N 51°58' E 004°04'0 0.0
2014-Sep-01 05:31N 51°58' E 004°04'0 0.0
2014-Sep-01 04:34N 51°58' E 004°04'0 0.0
2014-Sep-01 03:30N 51°58' E 004°04'1 0.8
2014-Sep-01 02:34N 51°58' E 004°05'8 7.7
2014-Sep-01 01:33N 52°00' E 003°53'8 8.2
2014-Sep-01 00:33N 51°58' E 003°40'10 9.4
2014-Aug-31 23:32N 51°55' E 003°25'1312.8
2014-Aug-31 22:29N 51°51' E 003°05'1616.2
2014-Aug-31 21:31N 51°46' E 002°41'1717.4
2014-Aug-31 20:33N 51°34' E 002°22'1818.0
2014-Aug-31 19:34N 51°22' E 002°02'1818.2
2014-Aug-31 18:34N 51°08' E 001°42'1918.8
2014-Aug-31 17:33N 50°52' E 001°26'2518.0
2014-Aug-31 16:10N 50°31' E 001°05'1218.8
2014-Aug-31 15:33N 50°26' E 000°48'1919.3
2014-Aug-31 14:33N 50°20' E 000°20'4217.5
2014-Aug-31 12:09N 49°42' W 000°10'1117.6
2014-Aug-31 11:33N 49°32' W 000°06'1010.4
2014-Aug-31 10:33N 49°28' E 000°08'0 0.0
2014-Aug-31 09:31N 49°28' E 000°08'0 0.0
2014-Aug-31 08:31N 49°28' E 000°08'0 0.0
2014-Aug-31 07:31N 49°28' E 000°08'0 0.0
2014-Aug-31 06:28N 49°28' E 000°08'0 0.0
2014-Aug-31 05:31N 49°28' E 000°08'0 0.0
2014-Aug-31 04:31N 49°28' E 000°08'0 0.0
2014-Aug-31 03:31N 49°28' E 000°08'0 0.0
2014-Aug-31 02:31N 49°28' E 000°08'0 0.0
2014-Aug-31 01:28N 49°28' E 000°08'0 0.0
2014-Aug-31 00:31N 49°28' E 000°08'0 0.0
2014-Aug-30 23:31N 49°28' E 000°08'0 0.0
2014-Aug-30 22:31N 49°28' E 000°08'0 0.0
2014-Aug-30 21:31N 49°28' E 000°08'0 0.0
2014-Aug-30 20:31N 49°28' E 000°08'0 0.0
2014-Aug-30 19:31N 49°28' E 000°08'0 0.0
2014-Aug-30 18:31N 49°28' E 000°08'0 0.0
2014-Aug-30 17:31N 49°28' E 000°08'0 0.0
2014-Aug-30 16:31N 49°28' E 000°08'0 0.0
2014-Aug-30 15:31N 49°28' E 000°08'0 0.0
2014-Aug-30 14:31N 49°28' E 000°08'0 0.0
2014-Aug-30 13:31N 49°28' E 000°08'0 0.0
2014-Aug-30 12:31N 49°28' E 000°08'1 0.7
2014-Aug-30 11:33N 49°27' E 000°09'1010.1
2014-Aug-30 10:33N 49°32' W 000°05'1313.0
2014-Aug-30 09:34N 49°37' W 000°23'1615.7
2014-Aug-30 08:34N 49°45' W 000°45'77717.1
2014-Aug-28 11:14N 38°31' W 009°43'1319.6
2014-Aug-28 10:33N 38°20' W 009°33'4019.9
2014-Aug-28 08:33N 37°55' W 008°54'3 0.1
2014-Aug-27 08:20N 37°55' W 008°50'2 2.9
2014-Aug-27 07:33N 37°53' W 008°51'8 7.6
2014-Aug-27 06:29N 37°46' W 008°56'16 7.3
2014-Aug-27 04:18N 37°31' W 009°03'1519.2
2014-Aug-27 03:33N 37°18' W 009°12'1919.3
2014-Aug-27 02:33N 37°01' W 009°22'1919.2
2014-Aug-27 01:33N 36°44' W 009°09'2019.7
2014-Aug-27 00:33N 36°38' W 008°46'2019.9
2014-Aug-26 23:33N 36°32' W 008°22'2019.9
2014-Aug-26 22:34N 36°26' W 007°59'6019.9
2014-Aug-26 19:33N 36°07' W 006°49'6418.5
2014-Aug-26 16:07N 35°59' W 005°31'1018.0
2014-Aug-26 15:33N 36°02' W 005°19'17519.4
2014-Aug-26 06:33N 36°32' W 001°45'4119.8
2014-Aug-26 04:28N 36°42' W 000°56'1819.9
2014-Aug-26 03:33N 36°47' W 000°34'2019.9
2014-Aug-26 02:34N 36°52' W 000°10'2019.7
2014-Aug-26 01:34N 36°57' E 000°14'2020.0
2014-Aug-26 00:34N 37°02' E 000°38'2020.2
2014-Aug-25 23:33N 37°08' E 001°03'2120.5
2014-Aug-25 22:33N 37°13' E 001°28'2020.2
2014-Aug-25 21:33N 37°18' E 001°52'2020.3
2014-Aug-25 20:34N 37°21' E 002°17'2020.3
2014-Aug-25 19:33N 37°22' E 002°43'2020.3
2014-Aug-25 18:34N 37°23' E 003°08'2019.9
2014-Aug-25 17:33N 37°24' E 003°33'2020.3
2014-Aug-25 16:33N 37°26' E 003°59'2020.2
2014-Aug-25 15:33N 37°26' E 004°24'2019.8
2014-Aug-25 14:33N 37°27' E 004°49'2020.2
2014-Aug-25 13:33N 37°28' E 005°14'2020.2
2014-Aug-25 12:34N 37°30' E 005°40'2120.8
2014-Aug-25 11:34N 37°31' E 006°06'14420.3
2014-Aug-25 04:27N 37°38' E 009°07'1819.6
2014-Aug-25 03:33N 37°38' E 009°30'2019.9
2014-Aug-25 02:33N 37°39' E 009°55'2219.7
2014-Aug-25 01:27N 37°39' E 010°22'2419.7
2014-Aug-25 00:15N 37°33' E 010°51'1419.8
2014-Aug-24 23:33N 37°29' E 011°08'4820.1
2014-Aug-24 21:08N 37°04' E 012°00'1719.8
2014-Aug-24 20:16N 36°58' E 012°20'1520.3
2014-Aug-24 19:32N 36°54' E 012°38'2020.0
2014-Aug-24 18:33N 36°47' E 013°01'2019.9
2014-Aug-24 17:34N 36°42' E 013°25'2020.0
2014-Aug-24 16:33N 36°35' E 013°49'2019.9
2014-Aug-24 15:34N 36°29' E 014°12'2020.0
2014-Aug-24 14:34N 36°23' E 014°36'2019.9
2014-Aug-24 13:34N 36°17' E 014°60'2020.0
2014-Aug-24 12:33N 36°11' E 015°23'2019.8
2014-Aug-24 11:34N 36°06' E 015°47'  
Track history (hours):
 
Tides and Currents Weather Stations Pressure Air Temp Water Temp Dewpoint Dewpoint Depression Visibility Wind Speed Wind Dir Waves Ship Positions

MSC Vega

Last reported at 2014-Sep-03 06:33 UTC. Time now 2014-Sep-03 07:24 UTC.
Position N 51°19' E 004°19'.

Length 366 m; draft 11.7 m.

Type: Ship (hazmat cat A). MMSI: 636015506.

Date/timePositionNaut miles runAvg speedWind from/ knotsBaromVisibWave heightAir tempDewpointWater temp
2014-Sep-03 06:33N 51°19' E 004°19'0 0.0
2014-Sep-03 05:33N 51°19' E 004°19'0 0.0
2014-Sep-03 04:32N 51°19' E 004°19'0 0.0
2014-Sep-03 03:33N 51°19' E 004°19'0 0.0
2014-Sep-03 02:33N 51°19' E 004°19'0 0.0
2014-Sep-03 01:32N 51°19' E 004°19'0 0.0
2014-Sep-03 00:33N 51°19' E 004°19'0 0.0
2014-Sep-02 23:32N 51°19' E 004°19'0 0.0
2014-Sep-02 22:29N 51°19' E 004°19'0 0.0
2014-Sep-02 21:32N 51°19' E 004°19'0 0.0
2014-Sep-02 20:33N 51°19' E 004°19'0 0.0
2014-Sep-02 19:33N 51°19' E 004°19'0 0.0
2014-Sep-02 18:32N 51°19' E 004°19'0 0.0
2014-Sep-02 17:32N 51°19' E 004°19'0 0.0
2014-Sep-02 16:32N 51°19' E 004°19'0 0.0
2014-Sep-02 15:32N 51°19' E 004°19'0 0.0
2014-Sep-02 14:32N 51°19' E 004°19'0 0.0
2014-Sep-02 13:32N 51°19' E 004°19'1 1.2
2014-Sep-02 12:33N 51°20' E 004°18'1 0.6
2014-Sep-02 11:34N 51°21' E 004°17'1 1.5
2014-Sep-02 10:34N 51°21' E 004°15'8 8.1
2014-Sep-02 09:34N 51°23' E 004°02'6 6.5
2014-Sep-02 08:34N 51°21' E 003°52'1111.2
2014-Sep-02 07:34N 51°26' E 003°36'1010.3
2014-Sep-02 06:34N 51°24' E 003°20'1312.5
2014-Sep-02 05:33N 51°28' E 003°01'1716.4
2014-Sep-02 04:31N 51°43' E 003°13'6 6.5
2014-Sep-02 03:33N 51°49' E 003°15'3 3.5
2014-Sep-02 02:33N 51°53' E 003°17'7 7.3
2014-Sep-02 01:31N 51°60' E 003°21'7 6.5
2014-Sep-02 00:28N 52°03' E 003°31'7 8.2
2014-Sep-01 23:33N 52°03' E 003°43'8 8.2
2014-Sep-01 22:33N 52°02' E 003°56'7 7.1
2014-Sep-01 21:33N 51°58' E 004°05'1 0.7
2014-Sep-01 20:31N 51°58' E 004°04'0 0.0
2014-Sep-01 19:31N 51°58' E 004°04'0 0.0
2014-Sep-01 18:31N 51°58' E 004°04'0 0.0
2014-Sep-01 17:31N 51°58' E 004°04'0 0.0
2014-Sep-01 16:31N 51°58' E 004°04'0 0.0
2014-Sep-01 15:31N 51°58' E 004°04'0 0.0
2014-Sep-01 14:28N 51°58' E 004°04'0 0.0
2014-Sep-01 13:28N 51°58' E 004°04'0 0.0
2014-Sep-01 12:34N 51°58' E 004°04'0 0.0
2014-Sep-01 11:28N 51°58' E 004°04'0 0.0
2014-Sep-01 10:34N 51°58' E 004°04'0 0.0
2014-Sep-01 09:34N 51°58' E 004°04'0 0.0
2014-Sep-01 08:31N 51°58' E 004°04'0 0.0
2014-Sep-01 07:31N 51°58' E 004°04'0 0.0
2014-Sep-01 06:33N 51°58' E 004°04'0 0.0
2014-Sep-01 05:31N 51°58' E 004°04'0 0.0
2014-Sep-01 04:34N 51°58' E 004°04'0 0.0
2014-Sep-01 03:30N 51°58' E 004°04'1 0.8
2014-Sep-01 02:34N 51°58' E 004°05'8 7.7
2014-Sep-01 01:33N 52°00' E 003°53'8 8.2
2014-Sep-01 00:33N 51°58' E 003°40'10 9.4
2014-Aug-31 23:32N 51°55' E 003°25'1312.8
2014-Aug-31 22:29N 51°51' E 003°05'1616.2
2014-Aug-31 21:31N 51°46' E 002°41'1717.4
2014-Aug-31 20:33N 51°34' E 002°22'1818.0
2014-Aug-31 19:34N 51°22' E 002°02'1818.2
2014-Aug-31 18:34N 51°08' E 001°42'1918.8
2014-Aug-31 17:33N 50°52' E 001°26'2518.0
2014-Aug-31 16:10N 50°31' E 001°05'1218.8
2014-Aug-31 15:33N 50°26' E 000°48'1919.3
2014-Aug-31 14:33N 50°20' E 000°20'4217.5
2014-Aug-31 12:09N 49°42' W 000°10'1117.6
2014-Aug-31 11:33N 49°32' W 000°06'1010.4
2014-Aug-31 10:33N 49°28' E 000°08'0 0.0
2014-Aug-31 09:31N 49°28' E 000°08'0 0.0
2014-Aug-31 08:31N 49°28' E 000°08'0 0.0
2014-Aug-31 07:31N 49°28' E 000°08'0 0.0
2014-Aug-31 06:28N 49°28' E 000°08'0 0.0
2014-Aug-31 05:31N 49°28' E 000°08'0 0.0
2014-Aug-31 04:31N 49°28' E 000°08'0 0.0
2014-Aug-31 03:31N 49°28' E 000°08'0 0.0
2014-Aug-31 02:31N 49°28' E 000°08'0 0.0
2014-Aug-31 01:28N 49°28' E 000°08'0 0.0
2014-Aug-31 00:31N 49°28' E 000°08'0 0.0
2014-Aug-30 23:31N 49°28' E 000°08'0 0.0
2014-Aug-30 22:31N 49°28' E 000°08'0 0.0
2014-Aug-30 21:31N 49°28' E 000°08'0 0.0
2014-Aug-30 20:31N 49°28' E 000°08'0 0.0
2014-Aug-30 19:31N 49°28' E 000°08'0 0.0
2014-Aug-30 18:31N 49°28' E 000°08'0 0.0
2014-Aug-30 17:31N 49°28' E 000°08'0 0.0
2014-Aug-30 16:31N 49°28' E 000°08'0 0.0
2014-Aug-30 15:31N 49°28' E 000°08'0 0.0
2014-Aug-30 14:31N 49°28' E 000°08'0 0.0
2014-Aug-30 13:31N 49°28' E 000°08'0 0.0
2014-Aug-30 12:31N 49°28' E 000°08'1 0.7
2014-Aug-30 11:33N 49°27' E 000°09'1010.1
2014-Aug-30 10:33N 49°32' W 000°05'1313.0
2014-Aug-30 09:34N 49°37' W 000°23'1615.7
2014-Aug-30 08:34N 49°45' W 000°45'77717.1
2014-Aug-28 11:14N 38°31' W 009°43'1319.6
2014-Aug-28 10:33N 38°20' W 009°33'4019.9
2014-Aug-28 08:33N 37°55' W 008°54'3 0.1
2014-Aug-27 08:20N 37°55' W 008°50'2 2.9
2014-Aug-27 07:33N 37°53' W 008°51'8 7.6
2014-Aug-27 06:29N 37°46' W 008°56'16 7.3
2014-Aug-27 04:18N 37°31' W 009°03'1519.2
2014-Aug-27 03:33N 37°18' W 009°12'1919.3
2014-Aug-27 02:33N 37°01' W 009°22'1919.2
2014-Aug-27 01:33N 36°44' W 009°09'2019.7
2014-Aug-27 00:33N 36°38' W 008°46'2019.9
2014-Aug-26 23:33N 36°32' W 008°22'2019.9
2014-Aug-26 22:34N 36°26' W 007°59'6019.9
2014-Aug-26 19:33N 36°07' W 006°49'6418.5
2014-Aug-26 16:07N 35°59' W 005°31'1018.0
2014-Aug-26 15:33N 36°02' W 005°19'17519.4
2014-Aug-26 06:33N 36°32' W 001°45'4119.8
2014-Aug-26 04:28N 36°42' W 000°56'1819.9
2014-Aug-26 03:33N 36°47' W 000°34'2019.9
2014-Aug-26 02:34N 36°52' W 000°10'2019.7
2014-Aug-26 01:34N 36°57' E 000°14'2020.0
2014-Aug-26 00:34N 37°02' E 000°38'2020.2
2014-Aug-25 23:33N 37°08' E 001°03'2120.5
2014-Aug-25 22:33N 37°13' E 001°28'2020.2
2014-Aug-25 21:33N 37°18' E 001°52'2020.3
2014-Aug-25 20:34N 37°21' E 002°17'2020.3
2014-Aug-25 19:33N 37°22' E 002°43'2020.3
2014-Aug-25 18:34N 37°23' E 003°08'2019.9
2014-Aug-25 17:33N 37°24' E 003°33'2020.3
2014-Aug-25 16:33N 37°26' E 003°59'2020.2
2014-Aug-25 15:33N 37°26' E 004°24'2019.8
2014-Aug-25 14:33N 37°27' E 004°49'2020.2
2014-Aug-25 13:33N 37°28' E 005°14'2020.2
2014-Aug-25 12:34N 37°30' E 005°40'2120.8
2014-Aug-25 11:34N 37°31' E 006°06'14420.3
2014-Aug-25 04:27N 37°38' E 009°07'1819.6
2014-Aug-25 03:33N 37°38' E 009°30'2019.9
2014-Aug-25 02:33N 37°39' E 009°55'2219.7
2014-Aug-25 01:27N 37°39' E 010°22'2419.7
2014-Aug-25 00:15N 37°33' E 010°51'1419.8
2014-Aug-24 23:33N 37°29' E 011°08'4820.1
2014-Aug-24 21:08N 37°04' E 012°00'1719.8
2014-Aug-24 20:16N 36°58' E 012°20'1520.3
2014-Aug-24 19:32N 36°54' E 012°38'2020.0
2014-Aug-24 18:33N 36°47' E 013°01'2019.9
2014-Aug-24 17:34N 36°42' E 013°25'2020.0
2014-Aug-24 16:33N 36°35' E 013°49'2019.9
2014-Aug-24 15:34N 36°29' E 014°12'2020.0
2014-Aug-24 14:34N 36°23' E 014°36'2019.9
2014-Aug-24 13:34N 36°17' E 014°60'2020.0
2014-Aug-24 12:33N 36°11' E 015°23'2019.8
2014-Aug-24 11:34N 36°06' E 015°47'  

Dump ship's entire track history